createdAt,value
2017-10-07T00:01:18.811Z,8.30
2017-10-07T00:03:45.262Z,8.30
2017-10-07T00:06:11.711Z,8.30
2017-10-07T00:08:38.204Z,8.30
2017-10-07T00:11:04.636Z,8.30
2017-10-07T00:13:31.095Z,8.20
2017-10-07T00:15:57.515Z,8.30
2017-10-07T00:18:24.067Z,8.20
2017-10-07T00:20:50.652Z,8.20
2017-10-07T00:23:17.075Z,8.20
2017-10-07T00:25:43.584Z,8.20
2017-10-07T00:28:10.155Z,8.30
2017-10-07T00:30:36.605Z,8.30
2017-10-07T00:33:03.116Z,8.30
2017-10-07T00:35:29.567Z,8.20
2017-10-07T00:37:56.089Z,8.20
2017-10-07T00:40:22.532Z,8.20
2017-10-07T00:42:49.032Z,8.20
2017-10-07T00:45:15.613Z,8.20
2017-10-07T00:47:42.066Z,8.20
2017-10-07T00:50:08.555Z,8.20
2017-10-07T00:52:35.824Z,8.20
2017-10-07T00:55:02.296Z,8.20
2017-10-07T00:57:28.795Z,8.20
2017-10-07T00:59:56.098Z,8.20
2017-10-07T01:02:22.604Z,8.20
2017-10-07T01:04:49.888Z,8.20
2017-10-07T01:07:16.372Z,8.20
2017-10-07T01:09:42.853Z,8.20
2017-10-07T01:12:09.306Z,8.20
2017-10-07T01:14:35.842Z,8.20
2017-10-07T01:17:02.279Z,8.20
2017-10-07T01:19:28.722Z,8.20
2017-10-07T01:21:55.131Z,8.20
2017-10-07T01:24:22.308Z,8.20
2017-10-07T01:26:48.775Z,8.20
2017-10-07T01:29:15.196Z,8.20
2017-10-07T01:31:41.612Z,8.20
2017-10-07T01:34:08.835Z,8.10
2017-10-07T01:36:36.094Z,8.10
2017-10-07T01:39:02.523Z,8.10
2017-10-07T01:41:29.007Z,8.10
2017-10-07T01:43:56.183Z,8.10
2017-10-07T01:46:22.643Z,8.10
2017-10-07T01:48:49.067Z,8.10
2017-10-07T01:51:15.627Z,8.10
2017-10-07T01:53:42.126Z,8.10
2017-10-07T01:56:09.307Z,8.10
2017-10-07T01:58:35.867Z,8.10
2017-10-07T02:01:02.419Z,8.10
2017-10-07T02:03:28.899Z,8.00
2017-10-07T02:05:56.062Z,8.00
2017-10-07T02:08:23.274Z,8.00
2017-10-07T02:10:49.734Z,8.00
2017-10-07T02:13:16.190Z,8.00
2017-10-07T02:15:42.635Z,8.10
2017-10-07T02:18:09.816Z,8.10
2017-10-07T02:20:36.286Z,8.00
2017-10-07T02:23:02.715Z,8.10
2017-10-07T02:25:29.147Z,8.10
2017-10-07T02:27:55.603Z,8.10
2017-10-07T02:30:22.012Z,8.10
2017-10-07T02:32:48.471Z,8.10
2017-10-07T02:35:14.913Z,8.00
2017-10-07T02:37:41.359Z,8.00
2017-10-07T02:40:07.776Z,8.00
2017-10-07T02:42:34.247Z,8.00
2017-10-07T02:45:00.697Z,8.00
2017-10-07T02:47:27.131Z,8.00
2017-10-07T02:49:53.595Z,8.00
2017-10-07T02:52:20.772Z,8.00
2017-10-07T02:54:47.257Z,8.00
2017-10-07T02:57:13.679Z,8.00
2017-10-07T02:59:40.143Z,8.00
2017-10-07T03:02:06.575Z,8.00
2017-10-07T03:04:33.027Z,8.00
2017-10-07T03:06:59.571Z,8.00
2017-10-07T03:09:26.042Z,8.00
2017-10-07T03:11:53.200Z,8.00
2017-10-07T03:14:19.672Z,8.00
2017-10-07T03:16:46.350Z,8.00
2017-10-07T03:19:12.787Z,8.00
2017-10-07T03:21:39.194Z,8.00
2017-10-07T03:24:05.784Z,8.00
2017-10-07T03:26:32.214Z,8.00
2017-10-07T03:28:58.699Z,8.00
2017-10-07T03:31:25.122Z,8.00
2017-10-07T03:33:52.343Z,8.00
2017-10-07T03:36:18.775Z,8.00
2017-10-07T03:38:45.228Z,7.90
2017-10-07T03:41:11.650Z,8.00
2017-10-07T03:43:38.074Z,8.00
2017-10-07T03:46:04.560Z,8.00
2017-10-07T03:48:31.119Z,8.00
2017-10-07T03:50:58.363Z,8.00
2017-10-07T03:53:24.772Z,8.00
2017-10-07T03:55:51.272Z,8.00
2017-10-07T03:58:17.715Z,8.00
2017-10-07T04:00:44.261Z,8.00
2017-10-07T04:03:10.715Z,8.00
2017-10-07T04:05:37.139Z,8.00
2017-10-07T04:08:03.727Z,8.00
2017-10-07T04:10:30.200Z,7.90
2017-10-07T04:12:57.404Z,7.90
2017-10-07T04:15:23.826Z,7.90
2017-10-07T04:17:50.260Z,7.90
2017-10-07T04:20:16.735Z,7.90
2017-10-07T04:22:43.155Z,7.90
2017-10-07T04:25:09.728Z,7.90
2017-10-07T04:27:36.221Z,8.00
2017-10-07T04:30:02.727Z,8.00
2017-10-07T04:32:30.035Z,8.00
2017-10-07T04:34:56.459Z,8.00
2017-10-07T04:37:22.902Z,8.00
2017-10-07T04:39:49.322Z,8.00
2017-10-07T04:42:16.511Z,8.00
2017-10-07T04:44:42.935Z,8.00
2017-10-07T04:47:09.379Z,8.00
2017-10-07T04:49:35.850Z,8.00
2017-10-07T04:52:02.309Z,8.00
2017-10-07T04:54:28.783Z,7.90
2017-10-07T04:56:55.221Z,7.90
2017-10-07T04:59:21.787Z,7.90
2017-10-07T05:01:48.279Z,7.80
2017-10-07T05:04:14.753Z,7.80
2017-10-07T05:06:41.224Z,7.70
2017-10-07T05:09:07.667Z,7.80
2017-10-07T05:11:34.239Z,7.80
2017-10-07T05:14:00.675Z,7.80
2017-10-07T05:16:27.075Z,7.80
2017-10-07T05:18:53.566Z,7.80
2017-10-07T05:21:20.919Z,7.80
2017-10-07T05:23:47.342Z,7.70
2017-10-07T05:26:13.986Z,7.70
2017-10-07T05:28:40.448Z,7.80
2017-10-07T05:31:07.003Z,7.70
2017-10-07T05:33:34.198Z,7.80
2017-10-07T05:36:00.720Z,7.70
2017-10-07T05:38:27.198Z,7.80
2017-10-07T05:40:53.847Z,7.80
2017-10-07T05:43:20.311Z,7.70
2017-10-07T05:45:46.830Z,7.70
2017-10-07T05:48:13.305Z,7.70
2017-10-07T05:50:40.499Z,7.70
2017-10-07T05:53:06.926Z,7.70
2017-10-07T05:55:33.376Z,7.80
2017-10-07T05:57:59.844Z,7.80
2017-10-07T06:00:26.291Z,7.90
2017-10-07T06:02:52.794Z,8.00
2017-10-07T06:05:19.208Z,8.00
2017-10-07T06:07:46.437Z,8.10
2017-10-07T06:10:12.922Z,8.10
2017-10-07T06:12:39.389Z,8.10
2017-10-07T06:15:05.835Z,8.10
2017-10-07T06:17:32.286Z,8.20
2017-10-07T06:19:58.951Z,8.20
2017-10-07T06:22:26.127Z,8.20
2017-10-07T06:24:52.571Z,8.20
2017-10-07T06:27:19.029Z,8.30
2017-10-07T06:29:45.503Z,8.30
2017-10-07T06:32:12.155Z,8.40
2017-10-07T06:34:38.622Z,8.40
2017-10-07T06:37:05.812Z,8.40
2017-10-07T06:39:32.282Z,8.40
2017-10-07T06:41:58.767Z,8.40
2017-10-07T06:44:25.218Z,8.40
2017-10-07T06:46:51.670Z,8.40
2017-10-07T06:49:18.314Z,8.40
2017-10-07T06:51:44.760Z,8.40
2017-10-07T06:54:11.286Z,8.30
2017-10-07T06:56:37.738Z,8.30
2017-10-07T06:59:04.203Z,8.30
2017-10-07T07:01:30.672Z,8.30
2017-10-07T07:03:58.071Z,8.40
2017-10-07T07:06:24.553Z,8.40
2017-10-07T07:08:51.000Z,8.50
2017-10-07T07:11:17.475Z,8.50
2017-10-07T07:13:43.949Z,8.50
2017-10-07T07:16:10.452Z,8.60
2017-10-07T07:18:37.656Z,8.90
2017-10-07T07:21:04.146Z,8.90
2017-10-07T07:23:31.340Z,9.60
2017-10-07T07:25:57.767Z,9.60
2017-10-07T07:28:24.223Z,10.00
2017-10-07T07:30:50.652Z,10.70
2017-10-07T07:33:17.112Z,11.60
2017-10-07T07:35:43.576Z,12.50
2017-10-07T07:38:10.030Z,13.20
2017-10-07T07:40:37.236Z,12.60
2017-10-07T07:43:03.660Z,12.60
2017-10-07T07:45:30.346Z,12.80
2017-10-07T07:47:56.779Z,13.00
2017-10-07T07:50:23.216Z,12.70
2017-10-07T07:52:49.675Z,12.20
2017-10-07T07:55:16.139Z,11.70
2017-10-07T07:57:43.327Z,10.30
2017-10-07T08:00:09.744Z,10.30
2017-10-07T08:02:36.383Z,10.20
2017-10-07T08:05:03.568Z,10.10
2017-10-07T08:07:30.051Z,10.10
2017-10-07T08:09:56.590Z,10.40
2017-10-07T08:12:23.035Z,10.60
2017-10-07T08:14:49.581Z,10.40
2017-10-07T08:17:16.041Z,10.30
2017-10-07T08:19:42.513Z,11.00
2017-10-07T08:22:08.975Z,12.10
2017-10-07T08:24:35.451Z,13.10
2017-10-07T08:27:02.776Z,13.30
2017-10-07T08:29:29.204Z,13.30
2017-10-07T08:31:55.710Z,13.10
2017-10-07T08:34:22.173Z,12.40
2017-10-07T08:36:48.606Z,11.40
2017-10-07T08:39:15.070Z,10.70
2017-10-07T08:41:41.490Z,10.60
2017-10-07T08:44:08.047Z,10.60
2017-10-07T08:46:34.519Z,10.90
2017-10-07T08:49:00.966Z,11.60
2017-10-07T08:51:27.414Z,12.00
2017-10-07T08:53:55.078Z,12.60
2017-10-07T08:56:21.600Z,12.60
2017-10-07T08:58:48.337Z,12.60
2017-10-07T09:01:14.817Z,13.20
2017-10-07T09:03:42.102Z,13.40
2017-10-07T09:06:08.557Z,13.30
2017-10-07T09:08:35.029Z,13.40
2017-10-07T09:11:01.512Z,13.80
2017-10-07T09:13:28.051Z,13.80
2017-10-07T09:15:54.517Z,13.70
2017-10-07T09:18:20.956Z,13.70
2017-10-07T09:20:47.418Z,14.20
2017-10-07T09:23:13.866Z,14.40
2017-10-07T09:25:40.431Z,13.60
2017-10-07T09:28:07.671Z,13.50
2017-10-07T09:30:34.919Z,13.60
2017-10-07T09:33:01.360Z,13.60
2017-10-07T09:35:27.797Z,13.70
2017-10-07T09:37:54.371Z,13.80
2017-10-07T09:40:21.557Z,14.10
2017-10-07T09:42:48.191Z,14.00
2017-10-07T09:45:14.728Z,14.70
2017-10-07T09:47:41.905Z,15.60
2017-10-07T09:50:08.476Z,15.50
2017-10-07T09:52:34.966Z,14.80
2017-10-07T09:55:01.453Z,14.20
2017-10-07T09:57:27.940Z,13.90
2017-10-07T09:59:55.127Z,12.90
2017-10-07T10:02:21.559Z,12.90
2017-10-07T10:04:48.023Z,12.90
2017-10-07T10:07:14.468Z,13.70
2017-10-07T10:09:40.964Z,14.60
2017-10-07T10:12:07.426Z,15.10
2017-10-07T10:14:33.880Z,14.50
2017-10-07T10:17:00.364Z,14.10
2017-10-07T10:19:27.568Z,13.10
2017-10-07T10:21:54.016Z,13.10
2017-10-07T10:24:20.474Z,12.80
2017-10-07T10:26:46.929Z,12.70
2017-10-07T10:29:13.374Z,12.40
2017-10-07T10:31:39.910Z,12.40
2017-10-07T10:34:06.407Z,12.40
2017-10-07T10:36:32.851Z,13.00
2017-10-07T10:38:59.359Z,13.90
2017-10-07T10:41:26.545Z,13.70
2017-10-07T10:43:52.992Z,13.70
2017-10-07T10:46:19.473Z,13.60
2017-10-07T10:48:46.649Z,15.00
2017-10-07T10:51:13.971Z,15.60
2017-10-07T10:53:40.414Z,15.60
2017-10-07T10:56:07.038Z,14.80
2017-10-07T10:58:33.574Z,14.00
2017-10-07T11:01:00.230Z,13.70
2017-10-07T11:03:26.749Z,13.40
2017-10-07T11:05:53.212Z,13.10
2017-10-07T11:08:19.743Z,13.10
2017-10-07T11:10:46.231Z,13.40
2017-10-07T11:13:13.435Z,13.50
2017-10-07T11:15:39.938Z,13.50
2017-10-07T11:18:06.582Z,13.30
2017-10-07T11:20:33.884Z,13.40
2017-10-07T11:23:00.358Z,13.40
2017-10-07T11:25:26.810Z,13.50
2017-10-07T11:27:54.217Z,13.10
2017-10-07T11:30:20.669Z,13.10
2017-10-07T11:32:48.148Z,13.10
2017-10-07T11:35:14.700Z,13.00
2017-10-07T11:37:41.245Z,13.00
2017-10-07T11:40:08.574Z,14.30
2017-10-07T11:42:35.359Z,14.30
2017-10-07T11:45:01.828Z,15.20
2017-10-07T11:47:28.344Z,15.90
2017-10-07T11:49:55.578Z,14.90
2017-10-07T11:52:22.010Z,14.80
2017-10-07T11:54:48.523Z,14.40
2017-10-07T11:57:14.992Z,14.80
2017-10-07T11:59:41.443Z,15.40
2017-10-07T12:02:07.896Z,16.40
2017-10-07T12:04:34.373Z,16.80
2017-10-07T12:07:00.816Z,16.40
2017-10-07T12:09:27.262Z,15.80
2017-10-07T12:11:53.748Z,15.20
2017-10-07T12:14:20.191Z,14.60
2017-10-07T12:16:46.646Z,14.50
2017-10-07T12:19:13.875Z,14.90
2017-10-07T12:21:40.318Z,14.90
2017-10-07T12:24:06.768Z,14.90
2017-10-07T12:26:33.807Z,15.20
2017-10-07T12:29:00.313Z,15.70
2017-10-07T12:31:26.780Z,15.90
2017-10-07T12:33:53.229Z,16.40
2017-10-07T12:36:19.667Z,16.80
2017-10-07T12:38:46.155Z,16.70
2017-10-07T12:41:12.635Z,16.20
2017-10-07T12:43:39.116Z,15.90
2017-10-07T12:46:05.569Z,15.30
2017-10-07T12:48:32.755Z,14.90
2017-10-07T12:50:59.235Z,14.90
2017-10-07T12:53:25.698Z,14.50
2017-10-07T12:55:52.924Z,13.80
2017-10-07T12:58:19.382Z,13.80
2017-10-07T13:00:45.868Z,13.80
2017-10-07T13:03:12.369Z,13.80
2017-10-07T13:05:38.854Z,13.90
2017-10-07T13:08:05.318Z,14.60
2017-10-07T13:10:31.806Z,15.20
2017-10-07T13:12:59.008Z,14.50
2017-10-07T13:15:25.495Z,14.50
2017-10-07T13:17:52.680Z,15.50
2017-10-07T13:20:19.116Z,15.50
2017-10-07T13:22:45.615Z,15.80
2017-10-07T13:25:12.808Z,15.80
2017-10-07T13:27:39.292Z,15.80
2017-10-07T13:30:05.731Z,15.60
2017-10-07T13:32:32.267Z,14.90
2017-10-07T13:34:58.708Z,14.50
2017-10-07T13:37:25.152Z,14.60
2017-10-07T13:39:51.609Z,14.90
2017-10-07T13:42:18.145Z,14.80
2017-10-07T13:44:44.660Z,14.40
2017-10-07T13:47:11.111Z,14.10
2017-10-07T13:49:37.590Z,14.00
2017-10-07T13:52:04.808Z,13.60
2017-10-07T13:54:31.299Z,13.50
2017-10-07T13:56:58.544Z,13.50
2017-10-07T13:59:25.868Z,13.30
2017-10-07T14:01:52.322Z,13.30
2017-10-07T14:04:18.979Z,13.10
2017-10-07T14:06:45.430Z,13.20
2017-10-07T14:09:12.675Z,13.30
2017-10-07T14:11:39.151Z,13.30
2017-10-07T14:14:05.631Z,13.30
2017-10-07T14:16:32.210Z,13.40
2017-10-07T14:18:59.436Z,13.20
2017-10-07T14:21:25.883Z,13.10
2017-10-07T14:23:52.298Z,13.00
2017-10-07T14:26:18.775Z,13.00
2017-10-07T14:28:45.255Z,12.90
2017-10-07T14:31:11.715Z,12.80
2017-10-07T14:33:38.187Z,12.80
2017-10-07T14:36:04.832Z,12.80
2017-10-07T14:38:31.314Z,12.90
2017-10-07T14:40:57.866Z,12.80
2017-10-07T14:43:24.321Z,12.90
2017-10-07T14:45:50.773Z,12.80
2017-10-07T14:48:17.244Z,12.80
2017-10-07T14:50:44.524Z,12.90
2017-10-07T14:53:11.777Z,12.90
2017-10-07T14:55:39.248Z,12.90
2017-10-07T14:58:05.722Z,12.90
2017-10-07T15:00:32.209Z,12.90
2017-10-07T15:02:59.456Z,12.70
2017-10-07T15:05:25.924Z,12.70
2017-10-07T15:07:53.173Z,13.00
2017-10-07T15:10:20.451Z,13.00
2017-10-07T15:12:47.012Z,13.00
2017-10-07T15:15:13.510Z,13.20
2017-10-07T15:17:40.756Z,13.40
2017-10-07T15:20:07.455Z,13.40
2017-10-07T15:22:33.934Z,13.40
2017-10-07T15:25:00.484Z,13.30
2017-10-07T15:27:26.915Z,13.30
2017-10-07T15:29:53.368Z,13.20
2017-10-07T15:32:20.717Z,13.00
2017-10-07T15:34:47.174Z,13.00
2017-10-07T15:37:14.418Z,12.70
2017-10-07T15:39:40.919Z,12.70
2017-10-07T15:42:07.500Z,12.50
2017-10-07T15:44:34.672Z,12.40
2017-10-07T15:47:01.927Z,12.40
2017-10-07T15:49:29.264Z,12.40
2017-10-07T15:51:55.890Z,12.40
2017-10-07T15:54:22.367Z,12.40
2017-10-07T15:56:48.920Z,12.30
2017-10-07T15:59:16.152Z,12.20
2017-10-07T16:01:42.715Z,12.10
2017-10-07T16:04:09.907Z,12.20
2017-10-07T16:06:36.364Z,12.20
2017-10-07T16:09:02.795Z,12.20
2017-10-07T16:11:29.277Z,12.20
2017-10-07T16:13:55.749Z,12.20
2017-10-07T16:16:22.912Z,12.10
2017-10-07T16:18:49.398Z,12.00
2017-10-07T16:21:15.915Z,12.00
2017-10-07T16:23:42.375Z,11.90
2017-10-07T16:26:08.859Z,11.90
2017-10-07T16:28:36.196Z,11.80
2017-10-07T16:31:02.667Z,11.80
2017-10-07T16:33:29.133Z,11.70
2017-10-07T16:35:55.677Z,11.60
2017-10-07T16:38:22.135Z,11.60
2017-10-07T16:40:48.647Z,11.50
2017-10-07T16:43:15.099Z,11.50
2017-10-07T16:45:41.575Z,11.50
2017-10-07T16:48:08.054Z,11.50
2017-10-07T16:50:34.583Z,11.40
2017-10-07T16:53:01.749Z,11.30
2017-10-07T16:55:28.722Z,11.30
2017-10-07T16:57:55.317Z,11.30
2017-10-07T17:00:21.953Z,11.30
2017-10-07T17:02:48.479Z,11.30
2017-10-07T17:05:14.996Z,11.30
2017-10-07T17:07:41.476Z,11.20
2017-10-07T17:10:07.968Z,11.20
2017-10-07T17:12:34.477Z,11.20
2017-10-07T17:15:01.655Z,11.20
2017-10-07T17:17:28.104Z,11.20
2017-10-07T17:19:54.635Z,11.20
2017-10-07T17:22:21.110Z,11.20
2017-10-07T17:24:47.512Z,11.20
2017-10-07T17:27:13.967Z,11.20
2017-10-07T17:29:40.564Z,11.10
2017-10-07T17:32:07.028Z,11.20
2017-10-07T17:34:34.292Z,11.10
2017-10-07T17:37:00.998Z,11.10
2017-10-07T17:39:27.490Z,11.20
2017-10-07T17:41:53.934Z,11.10
2017-10-07T17:44:20.416Z,11.10
2017-10-07T17:46:47.131Z,11.10
2017-10-07T17:49:13.571Z,11.10
2017-10-07T17:51:40.039Z,11.20
2017-10-07T17:54:06.605Z,11.20
2017-10-07T17:56:33.882Z,11.10
2017-10-07T17:59:00.347Z,11.10
2017-10-07T18:01:26.844Z,11.10
2017-10-07T18:03:54.241Z,11.10
2017-10-07T18:06:20.797Z,11.10
2017-10-07T18:08:47.438Z,11.10
2017-10-07T18:11:13.935Z,11.10
2017-10-07T18:13:41.173Z,11.10
2017-10-07T18:16:07.679Z,11.10
2017-10-07T18:18:34.238Z,11.00
2017-10-07T18:21:00.752Z,11.00
2017-10-07T18:23:27.188Z,11.00
2017-10-07T18:25:54.037Z,11.00
2017-10-07T18:28:20.556Z,11.00
2017-10-07T18:30:47.805Z,11.00
2017-10-07T18:33:15.154Z,10.90
2017-10-07T18:35:41.659Z,10.90
2017-10-07T18:38:08.142Z,10.90
2017-10-07T18:40:35.443Z,10.90
2017-10-07T18:43:01.868Z,10.80
2017-10-07T18:45:28.324Z,10.90
2017-10-07T18:47:54.900Z,10.90
2017-10-07T18:50:21.372Z,10.90
2017-10-07T18:52:48.607Z,10.90
2017-10-07T18:55:15.093Z,10.80
2017-10-07T18:57:41.602Z,10.90
2017-10-07T19:00:08.795Z,10.80
2017-10-07T19:02:35.260Z,10.80
2017-10-07T19:05:02.635Z,10.80
2017-10-07T19:07:29.193Z,10.80
2017-10-07T19:09:56.624Z,10.80
2017-10-07T19:12:23.237Z,10.80
2017-10-07T19:14:50.088Z,10.70
2017-10-07T19:17:16.833Z,10.70
2017-10-07T19:19:43.682Z,10.80
2017-10-07T19:22:10.639Z,10.80
2017-10-07T19:24:37.380Z,10.80
2017-10-07T19:27:04.152Z,10.90
2017-10-07T19:29:31.115Z,10.90
2017-10-07T19:31:58.848Z,10.90
2017-10-07T19:34:25.596Z,10.90
2017-10-07T19:36:52.307Z,10.90
2017-10-07T19:39:19.802Z,11.00
2017-10-07T19:41:46.426Z,11.00
2017-10-07T19:44:13.203Z,11.00
2017-10-07T19:46:39.763Z,11.00
2017-10-07T19:49:06.463Z,11.00
2017-10-07T19:51:33.139Z,11.00
2017-10-07T19:53:59.790Z,11.00
2017-10-07T19:56:26.488Z,11.00
2017-10-07T19:58:53.139Z,11.00
2017-10-07T20:01:19.905Z,11.00
2017-10-07T20:03:46.573Z,10.90
2017-10-07T20:06:13.091Z,11.00
2017-10-07T20:08:39.678Z,11.00
2017-10-07T20:11:06.182Z,11.00
2017-10-07T20:13:32.679Z,11.00
2017-10-07T20:15:59.193Z,11.00
2017-10-07T20:18:25.829Z,11.00
2017-10-07T20:20:52.389Z,11.00
2017-10-07T20:23:18.992Z,11.00
2017-10-07T20:25:45.494Z,11.00
2017-10-07T20:28:14.439Z,10.90
2017-10-07T20:30:40.991Z,10.80
2017-10-07T20:33:07.430Z,10.80
2017-10-07T20:35:48.846Z,10.80
2017-10-07T20:41:04.461Z,10.60
2017-10-07T20:43:31.720Z,10.40
2017-10-07T20:45:58.880Z,10.30
2017-10-07T20:48:26.094Z,10.20
2017-10-07T20:50:52.746Z,10.20
2017-10-07T20:53:20.126Z,10.10
2017-10-07T20:55:46.640Z,10.00
2017-10-07T20:58:28.058Z,9.90
2017-10-07T21:00:55.360Z,9.80
2017-10-07T21:03:21.805Z,9.70
2017-10-07T21:05:48.333Z,9.60
2017-10-07T21:08:14.908Z,9.40
2017-10-07T21:10:41.369Z,9.30
2017-10-07T21:13:07.836Z,9.20
2017-10-07T21:15:35.012Z,8.90
2017-10-07T21:18:01.535Z,8.90
2017-10-07T21:20:28.013Z,8.70
2017-10-07T21:22:54.486Z,8.60
2017-10-07T21:25:20.995Z,8.50
2017-10-07T21:27:47.488Z,8.40
2017-10-07T21:30:14.704Z,8.20
2017-10-07T21:32:41.204Z,8.20
2017-10-07T21:35:07.760Z,8.20
2017-10-07T21:37:34.284Z,8.10
2017-10-07T21:40:00.729Z,8.10
2017-10-07T21:42:27.196Z,8.10
2017-10-07T21:44:53.668Z,8.00
2017-10-07T21:47:20.166Z,8.00
2017-10-07T21:49:46.652Z,8.00
2017-10-07T21:52:13.206Z,8.00
2017-10-07T21:54:40.595Z,7.90
2017-10-07T21:57:07.056Z,7.90
2017-10-07T21:59:33.571Z,7.90
2017-10-07T22:02:00.126Z,7.90
2017-10-07T22:04:26.720Z,7.90
2017-10-07T22:06:53.199Z,7.90
2017-10-07T22:09:19.657Z,8.00
2017-10-07T22:11:46.283Z,8.00
2017-10-07T22:14:12.728Z,8.00
2017-10-07T22:16:39.191Z,8.00
2017-10-07T22:19:05.666Z,8.00
2017-10-07T22:21:32.968Z,8.00
2017-10-07T22:23:59.436Z,8.00
2017-10-07T22:26:25.891Z,8.00
2017-10-07T22:28:52.346Z,8.00
2017-10-07T22:31:19.533Z,7.90
2017-10-07T22:33:46.232Z,7.90
2017-10-07T22:36:12.699Z,7.90
2017-10-07T22:38:39.932Z,7.90
2017-10-07T22:41:07.185Z,7.90
2017-10-07T22:43:33.679Z,7.90
2017-10-07T22:46:00.112Z,8.00
2017-10-07T22:48:26.547Z,8.00
2017-10-07T22:50:53.004Z,7.90
2017-10-07T22:53:19.461Z,8.00
2017-10-07T22:55:45.938Z,8.10
2017-10-07T22:58:12.574Z,8.20
2017-10-07T23:00:39.080Z,8.30
2017-10-07T23:03:05.523Z,8.30
2017-10-07T23:05:32.020Z,8.30
2017-10-07T23:07:59.263Z,8.30
2017-10-07T23:10:25.747Z,8.30
2017-10-07T23:12:52.214Z,8.30
2017-10-07T23:15:18.640Z,8.40
2017-10-07T23:17:45.095Z,8.40
2017-10-07T23:20:11.536Z,8.40
2017-10-07T23:22:38.004Z,8.50
2017-10-07T23:25:05.240Z,8.50
2017-10-07T23:27:31.675Z,8.50
2017-10-07T23:29:58.140Z,8.50
2017-10-07T23:32:24.575Z,8.60
2017-10-07T23:34:51.043Z,8.70
2017-10-07T23:37:18.256Z,8.70
2017-10-07T23:39:44.694Z,8.70
2017-10-07T23:42:11.152Z,8.70
2017-10-07T23:44:37.651Z,8.70
2017-10-07T23:47:04.076Z,8.70
2017-10-07T23:49:30.655Z,8.70
2017-10-07T23:51:57.119Z,8.80
2017-10-07T23:54:23.538Z,8.80
2017-10-07T23:56:50.023Z,8.80
2017-10-07T23:59:17.186Z,8.80
